createdAt,value
2019-04-28T00:00:26.591Z,78.50
2019-04-28T00:03:12.063Z,78.80
2019-04-28T00:05:56.942Z,78.00
2019-04-28T00:08:42.893Z,78.00
2019-04-28T00:11:28.140Z,78.20
2019-04-28T00:14:12.844Z,78.70
2019-04-28T00:16:57.942Z,78.10
2019-04-28T00:19:42.681Z,79.20
2019-04-28T00:22:35.227Z,78.40
2019-04-28T00:25:24.673Z,78.90
2019-04-28T00:28:11.548Z,80.50
2019-04-28T00:30:57.814Z,79.50
2019-04-28T00:33:43.575Z,79.30
2019-04-28T00:36:28.469Z,79.20
2019-04-28T00:39:13.341Z,79.50
2019-04-28T00:41:58.362Z,79.80
2019-04-28T00:44:43.476Z,79.70
2019-04-28T00:47:28.593Z,79.10
2019-04-28T00:50:13.391Z,78.80
2019-04-28T00:52:58.552Z,78.90
2019-04-28T00:55:43.229Z,78.50
2019-04-28T00:58:28.030Z,78.70
2019-04-28T01:01:17.626Z,78.70
2019-04-28T01:04:02.943Z,78.50
2019-04-28T01:06:47.853Z,79.20
2019-04-28T01:09:32.750Z,78.10
2019-04-28T01:12:17.633Z,78.90
2019-04-28T01:15:05.000Z,79.10
2019-04-28T01:17:55.597Z,79.50
2019-04-28T01:20:40.325Z,81.40
2019-04-28T01:23:25.102Z,79.90
2019-04-28T01:26:09.971Z,81.60
2019-04-28T01:28:55.117Z,81.40
2019-04-28T01:31:41.845Z,80.90
2019-04-28T01:34:26.676Z,81.90
2019-04-28T01:37:11.679Z,81.60
2019-04-28T01:39:56.625Z,82.00
2019-04-28T01:42:41.356Z,82.70
2019-04-28T01:45:26.159Z,82.40
2019-04-28T01:48:11.144Z,82.60
2019-04-28T01:50:55.776Z,84.00
2019-04-28T01:53:40.607Z,82.60
2019-04-28T01:56:25.844Z,80.80
2019-04-28T01:59:10.772Z,81.10
2019-04-28T02:01:55.729Z,80.30
2019-04-28T02:04:40.577Z,82.70
2019-04-28T02:07:25.274Z,79.60
2019-04-28T02:10:10.494Z,79.10
2019-04-28T02:12:55.341Z,78.50
2019-04-28T02:15:40.091Z,79.20
2019-04-28T02:18:25.307Z,78.60
2019-04-28T02:21:12.125Z,77.70
2019-04-28T02:23:59.937Z,79.10
2019-04-28T02:26:44.970Z,78.00
2019-04-28T02:29:30.157Z,78.20
2019-04-28T02:32:15.642Z,77.80
2019-04-28T02:35:01.653Z,77.60
2019-04-28T02:37:50.015Z,77.00
2019-04-28T02:40:34.401Z,77.40
2019-04-28T02:43:20.872Z,76.70
2019-04-28T02:46:06.373Z,75.90
2019-04-28T02:48:54.144Z,76.20
2019-04-28T02:51:59.983Z,76.40
2019-04-28T02:54:46.419Z,76.30
2019-04-28T02:57:31.525Z,75.80
2019-04-28T03:00:16.642Z,76.10
2019-04-28T03:03:01.802Z,76.40
2019-04-28T03:05:50.889Z,76.40
2019-04-28T03:08:34.969Z,76.50
2019-04-28T03:11:20.594Z,77.10
2019-04-28T03:14:05.595Z,77.30
2019-04-28T03:16:51.077Z,77.40
2019-04-28T03:19:35.876Z,78.50
2019-04-28T03:22:20.766Z,77.50
2019-04-28T03:25:10.780Z,77.90
2019-04-28T03:27:56.589Z,78.30
2019-04-28T03:31:06.608Z,78.60
2019-04-28T03:33:49.149Z,78.20
2019-04-28T03:36:33.775Z,78.50
2019-04-28T03:39:20.452Z,78.90
2019-04-28T03:42:05.381Z,79.20
2019-04-28T03:44:51.116Z,79.50
2019-04-28T03:47:36.802Z,80.80
2019-04-28T03:50:21.526Z,79.90
2019-04-28T03:53:06.566Z,80.40
2019-04-28T03:55:51.567Z,81.10
2019-04-28T03:58:40.429Z,79.50
2019-04-28T04:01:24.482Z,79.00
2019-04-28T04:04:11.307Z,79.60
2019-04-28T04:06:56.281Z,79.10
2019-04-28T04:09:43.042Z,77.90
2019-04-28T04:12:41.997Z,78.10
2019-04-28T04:15:49.659Z,79.00
2019-04-28T04:18:36.905Z,78.90
2019-04-28T04:21:21.683Z,79.00
2019-04-28T04:24:07.031Z,79.40
2019-04-28T04:26:51.736Z,79.00
2019-04-28T04:29:36.434Z,78.00
2019-04-28T04:32:26.715Z,78.40
2019-04-28T04:35:10.213Z,79.60
2019-04-28T04:37:55.109Z,78.70
2019-04-28T04:40:41.321Z,78.20
2019-04-28T04:43:26.906Z,78.90
2019-04-28T04:46:22.937Z,78.00
2019-04-28T04:49:10.504Z,77.80
2019-04-28T04:51:54.693Z,77.70
2019-04-28T04:54:40.141Z,77.30
2019-04-28T04:57:25.441Z,76.50
2019-04-28T05:00:12.697Z,76.70
2019-04-28T05:03:00.835Z,77.50
2019-04-28T05:05:46.271Z,77.00
2019-04-28T05:08:31.152Z,77.60
2019-04-28T05:11:15.977Z,76.80
2019-04-28T05:14:00.889Z,77.80
2019-04-28T05:16:45.648Z,76.70
2019-04-28T05:19:30.406Z,76.90
2019-04-28T05:22:16.493Z,76.50
2019-04-28T05:25:06.305Z,76.70
2019-04-28T05:27:54.500Z,76.80
2019-04-28T05:30:39.710Z,76.00
2019-04-28T05:33:30.621Z,75.30
2019-04-28T05:36:14.390Z,75.50
2019-04-28T05:39:00.144Z,76.00
2019-04-28T05:41:45.543Z,74.50
2019-04-28T05:44:31.963Z,75.60
2019-04-28T05:47:16.919Z,76.10
2019-04-28T05:50:07.952Z,76.80
2019-04-28T05:52:55.148Z,75.10
2019-04-28T05:55:50.918Z,74.00
2019-04-28T05:58:37.549Z,73.60
2019-04-28T06:01:24.521Z,73.20
2019-04-28T06:04:11.114Z,73.40
2019-04-28T06:06:59.751Z,74.50
2019-04-28T06:09:46.957Z,73.30
2019-04-28T06:12:32.064Z,74.10
2019-04-28T06:15:17.365Z,74.10
2019-04-28T06:18:02.241Z,73.50
2019-04-28T06:20:47.495Z,74.00
2019-04-28T06:23:32.382Z,74.10
2019-04-28T06:26:17.234Z,74.00
2019-04-28T06:29:02.258Z,72.80
2019-04-28T06:31:47.225Z,72.50
2019-04-28T06:34:32.061Z,73.30
2019-04-28T06:37:16.855Z,73.30
2019-04-28T06:40:05.050Z,73.70
2019-04-28T06:42:49.885Z,73.40
2019-04-28T06:45:34.643Z,73.60
2019-04-28T06:48:19.481Z,75.20
2019-04-28T06:51:04.259Z,74.40
2019-04-28T06:53:49.349Z,74.30
2019-04-28T06:56:33.908Z,75.20
2019-04-28T06:59:18.798Z,74.60
2019-04-28T07:02:03.753Z,73.80
2019-04-28T07:05:00.932Z,73.20
2019-04-28T07:07:35.793Z,74.00
2019-04-28T07:10:20.450Z,73.50
2019-04-28T07:13:05.490Z,72.70
2019-04-28T07:15:50.420Z,72.70
2019-04-28T07:18:35.211Z,72.10
2019-04-28T07:21:36.943Z,72.10
2019-04-28T07:24:21.576Z,72.80
2019-04-28T07:27:07.266Z,71.50
2019-04-28T07:29:51.964Z,71.90
2019-04-28T07:32:37.058Z,71.20
2019-04-28T07:35:21.714Z,71.00
2019-04-28T07:38:06.742Z,70.90
2019-04-28T07:40:51.421Z,70.80
2019-04-28T07:43:36.319Z,71.10
2019-04-28T07:46:20.965Z,70.30
2019-04-28T07:49:05.804Z,71.50
2019-04-28T07:52:08.938Z,70.60
2019-04-28T07:54:53.765Z,71.80
2019-04-28T07:57:38.574Z,70.50
2019-04-28T08:00:28.109Z,70.30
2019-04-28T08:03:13.419Z,71.10
2019-04-28T08:05:58.373Z,69.50
2019-04-28T08:08:43.293Z,70.40
2019-04-28T08:11:27.964Z,69.50
2019-04-28T08:14:12.850Z,67.60
2019-04-28T08:16:57.971Z,64.50
2019-04-28T08:19:42.672Z,64.80
2019-04-28T08:22:28.431Z,63.50
2019-04-28T08:25:13.615Z,64.50
2019-04-28T08:27:59.254Z,64.70
2019-04-28T08:30:44.172Z,64.50
2019-04-28T08:33:39.504Z,63.20
2019-04-28T08:36:24.725Z,63.20
2019-04-28T08:39:09.546Z,62.90
2019-04-28T08:41:55.058Z,60.70
2019-04-28T08:44:39.724Z,60.50
2019-04-28T08:47:24.524Z,62.10
2019-04-28T08:50:10.700Z,61.20
2019-04-28T08:52:56.081Z,63.30
2019-04-28T08:55:41.394Z,62.30
2019-04-28T08:58:26.135Z,60.90
2019-04-28T09:01:11.236Z,61.00
2019-04-28T09:03:56.241Z,60.60
2019-04-28T09:06:41.016Z,60.60
2019-04-28T09:09:26.016Z,60.00
2019-04-28T09:12:11.157Z,60.40
2019-04-28T09:14:56.069Z,60.90
2019-04-28T09:17:41.600Z,60.70
2019-04-28T09:20:26.610Z,62.50
2019-04-28T09:23:11.402Z,61.10
2019-04-28T09:25:56.281Z,60.70
2019-04-28T09:28:40.966Z,60.80
2019-04-28T09:31:25.813Z,60.20
2019-04-28T09:34:11.517Z,59.20
2019-04-28T09:36:56.240Z,58.10
2019-04-28T09:39:48.849Z,58.40
2019-04-28T09:42:35.620Z,59.50
2019-04-28T09:45:22.479Z,59.10
2019-04-28T09:48:07.334Z,59.80
2019-04-28T09:50:53.282Z,58.50
2019-04-28T09:53:37.985Z,58.70
2019-04-28T09:56:22.966Z,58.50
2019-04-28T09:59:07.825Z,58.50
2019-04-28T10:01:52.761Z,58.50
2019-04-28T10:04:41.687Z,59.80
2019-04-28T10:07:24.595Z,59.30
2019-04-28T10:10:10.025Z,58.10
2019-04-28T10:12:54.674Z,57.40
2019-04-28T10:15:39.854Z,58.60
2019-04-28T10:18:24.882Z,59.50
2019-04-28T10:21:09.926Z,60.70
2019-04-28T10:23:54.899Z,61.40
2019-04-28T10:26:39.671Z,62.40
2019-04-28T10:29:24.579Z,62.60
2019-04-28T10:32:09.379Z,63.80
2019-04-28T10:34:55.297Z,63.10
2019-04-28T10:37:40.428Z,57.80
2019-04-28T10:40:34.567Z,58.40
2019-04-28T10:43:19.139Z,58.40
2019-04-28T10:46:04.080Z,58.70
2019-04-28T10:48:48.934Z,56.80
2019-04-28T10:51:33.753Z,57.40
2019-04-28T10:54:18.646Z,57.20
2019-04-28T10:57:03.660Z,55.70
2019-04-28T10:59:48.416Z,57.80
2019-04-28T11:02:33.193Z,56.80
2019-04-28T11:05:19.785Z,58.20
2019-04-28T11:08:06.576Z,58.20
2019-04-28T11:10:51.713Z,56.90
2019-04-28T11:13:36.809Z,54.20
2019-04-28T11:16:26.247Z,52.80
2019-04-28T11:19:12.213Z,49.60
2019-04-28T11:21:56.876Z,50.00
2019-04-28T11:24:41.958Z,51.10
2019-04-28T11:27:27.122Z,53.70
2019-04-28T11:30:13.445Z,54.30
2019-04-28T11:33:00.870Z,54.30
2019-04-28T11:35:47.066Z,55.20
2019-04-28T11:38:31.812Z,54.80
2019-04-28T11:41:16.682Z,54.60
2019-04-28T11:44:01.906Z,54.80
2019-04-28T11:46:46.755Z,54.60
2019-04-28T11:49:31.605Z,53.70
2019-04-28T11:52:16.617Z,52.40
2019-04-28T11:55:02.854Z,52.50
2019-04-28T11:57:47.954Z,53.10
2019-04-28T12:00:34.479Z,52.70
2019-04-28T12:03:19.515Z,49.70
2019-04-28T12:06:04.495Z,49.30
2019-04-28T12:08:51.225Z,51.10
2019-04-28T12:11:38.113Z,50.30
2019-04-28T12:14:34.016Z,49.40
2019-04-28T12:17:38.910Z,50.20
2019-04-28T12:20:25.673Z,50.30
2019-04-28T12:23:10.557Z,49.70
2019-04-28T12:25:55.545Z,47.20
2019-04-28T12:28:40.436Z,44.80
2019-04-28T12:31:25.298Z,41.00
2019-04-28T12:34:10.094Z,38.90
2019-04-28T12:36:54.902Z,35.80
2019-04-28T12:39:39.791Z,36.00
2019-04-28T12:42:25.940Z,35.40
2019-04-28T12:45:10.937Z,34.50
2019-04-28T12:47:56.035Z,36.00
2019-04-28T12:50:48.822Z,33.30
2019-04-28T12:53:34.050Z,34.30
2019-04-28T12:56:19.128Z,35.00
2019-04-28T12:59:06.100Z,38.60
2019-04-28T13:01:52.990Z,42.20
2019-04-28T13:04:45.657Z,44.70
2019-04-28T13:07:31.189Z,48.30
2019-04-28T13:10:15.955Z,51.90
2019-04-28T13:13:00.954Z,54.90
2019-04-28T13:15:45.624Z,56.80
2019-04-28T13:18:30.549Z,57.60
2019-04-28T13:21:15.214Z,57.70
2019-04-28T13:24:00.013Z,56.10
2019-04-28T13:26:44.761Z,54.20
2019-04-28T13:29:29.634Z,52.60
2019-04-28T13:32:14.573Z,50.20
2019-04-28T13:34:59.425Z,48.40
2019-04-28T13:37:44.178Z,46.20
2019-04-28T13:40:33.881Z,48.10
2019-04-28T13:43:19.137Z,49.00
2019-04-28T13:46:04.145Z,46.80
2019-04-28T13:48:49.290Z,43.80
2019-04-28T13:51:34.244Z,44.00
2019-04-28T13:54:21.262Z,44.20
2019-04-28T13:57:06.212Z,46.50
2019-04-28T13:59:53.595Z,47.90
2019-04-28T14:02:49.137Z,46.70
2019-04-28T14:05:54.621Z,44.40
2019-04-28T14:08:39.253Z,42.80
2019-04-28T14:11:24.065Z,42.60
2019-04-28T14:14:09.045Z,40.10
2019-04-28T14:16:54.259Z,39.40
2019-04-28T14:19:39.227Z,39.50
2019-04-28T14:22:24.107Z,40.40
2019-04-28T14:25:22.551Z,39.00
2019-04-28T14:28:07.662Z,40.50
2019-04-28T14:30:52.959Z,35.30
2019-04-28T14:33:38.013Z,34.90
2019-04-28T14:36:23.016Z,33.50
2019-04-28T14:39:08.479Z,32.30
2019-04-28T14:41:55.638Z,33.50
2019-04-28T14:44:40.521Z,35.50
2019-04-28T14:47:25.734Z,35.10
2019-04-28T14:50:10.921Z,34.40
2019-04-28T14:52:55.768Z,34.40
2019-04-28T14:55:40.417Z,32.80
2019-04-28T14:58:25.354Z,35.00
2019-04-28T15:01:12.112Z,36.80
2019-04-28T15:03:59.146Z,35.10
2019-04-28T15:07:02.398Z,33.60
2019-04-28T15:10:00.941Z,33.80
2019-04-28T15:12:45.837Z,31.40
2019-04-28T15:15:30.543Z,33.10
2019-04-28T15:18:15.546Z,32.60
2019-04-28T15:21:00.897Z,32.80
2019-04-28T15:23:47.135Z,33.60
2019-04-28T15:26:32.014Z,33.70
2019-04-28T15:29:16.775Z,34.00
2019-04-28T15:32:01.809Z,32.50
2019-04-28T15:34:46.606Z,32.90
2019-04-28T15:37:31.571Z,34.40
2019-04-28T15:40:16.449Z,32.30
2019-04-28T15:43:01.237Z,34.20
2019-04-28T15:45:45.987Z,33.30
2019-04-28T15:48:31.844Z,33.40
2019-04-28T15:51:16.968Z,32.30
2019-04-28T15:54:02.330Z,33.30
2019-04-28T15:56:47.847Z,32.40
2019-04-28T15:59:33.649Z,33.30
2019-04-28T16:02:18.392Z,34.70
2019-04-28T16:05:06.508Z,34.20
2019-04-28T16:07:51.329Z,33.60
2019-04-28T16:10:36.381Z,33.30
2019-04-28T16:13:21.511Z,33.00
2019-04-28T16:16:06.385Z,33.10
2019-04-28T16:18:51.071Z,34.20
2019-04-28T16:21:35.941Z,34.40
2019-04-28T16:24:20.849Z,34.80
2019-04-28T16:27:06.562Z,36.30
2019-04-28T16:29:51.437Z,37.80
2019-04-28T16:32:36.196Z,41.80
2019-04-28T16:35:21.161Z,43.00
2019-04-28T16:38:06.012Z,42.30
2019-04-28T16:40:54.171Z,42.80
2019-04-28T16:43:42.498Z,43.00
2019-04-28T16:46:27.562Z,41.70
2019-04-28T16:49:12.357Z,42.20
2019-04-28T16:51:58.289Z,40.60
2019-04-28T16:54:43.220Z,41.60
2019-04-28T16:57:32.671Z,41.40
2019-04-28T17:00:20.062Z,41.20
2019-04-28T17:03:05.332Z,40.70
2019-04-28T17:05:50.118Z,41.90
2019-04-28T17:08:35.053Z,41.60
2019-04-28T17:11:20.040Z,42.30
2019-04-28T17:14:04.997Z,43.80
2019-04-28T17:16:50.177Z,43.80
2019-04-28T17:19:35.319Z,43.30
2019-04-28T17:22:20.169Z,45.00
2019-04-28T17:25:05.806Z,45.00
2019-04-28T17:27:50.962Z,44.70
2019-04-28T17:30:35.679Z,44.50
2019-04-28T17:33:20.492Z,44.70
2019-04-28T17:36:05.653Z,46.10
2019-04-28T17:38:52.192Z,45.10
2019-04-28T17:41:37.232Z,45.80
2019-04-28T17:44:22.600Z,45.20
2019-04-28T17:47:07.900Z,43.80
2019-04-28T17:49:52.989Z,44.70
2019-04-28T17:52:37.773Z,45.20
2019-04-28T17:55:22.600Z,46.20
2019-04-28T17:58:08.024Z,47.90
2019-04-28T18:00:54.951Z,48.20
2019-04-28T18:03:58.379Z,50.40
2019-04-28T18:07:08.852Z,51.60
2019-04-28T18:09:53.737Z,53.40
2019-04-28T18:12:39.062Z,54.90
2019-04-28T18:15:28.914Z,55.70
2019-04-28T18:18:22.187Z,56.40
2019-04-28T18:21:07.146Z,57.20
2019-04-28T18:23:52.186Z,58.90
2019-04-28T18:26:37.060Z,58.20
2019-04-28T18:29:21.893Z,59.10
2019-04-28T18:35:14.422Z,60.30
2019-04-28T18:38:01.567Z,60.80
2019-04-28T18:41:03.206Z,60.80
2019-04-28T18:43:53.131Z,63.50
2019-04-28T18:46:38.001Z,63.90
2019-04-28T18:49:23.502Z,63.90
2019-04-28T18:52:08.687Z,65.00
2019-04-28T18:54:54.179Z,64.20
2019-04-28T18:57:39.085Z,64.90
2019-04-28T19:00:26.116Z,65.20
2019-04-28T19:03:11.590Z,66.40
2019-04-28T19:05:56.955Z,66.80
2019-04-28T19:08:49.239Z,66.80
2019-04-28T19:11:35.674Z,66.90
2019-04-28T19:14:22.738Z,67.70
2019-04-28T19:17:09.618Z,68.20
2019-04-28T19:19:54.619Z,69.50
2019-04-28T19:22:43.510Z,68.70
2019-04-28T19:25:28.746Z,69.60
2019-04-28T19:28:14.005Z,69.90
2019-04-28T19:30:59.343Z,70.30
2019-04-28T19:33:44.475Z,70.80
2019-04-28T19:36:29.836Z,71.10
2019-04-28T19:39:16.048Z,72.70
2019-04-28T19:42:03.765Z,73.70
2019-04-28T19:44:48.822Z,73.80
2019-04-28T19:47:34.017Z,74.80
2019-04-28T19:50:19.305Z,76.10
2019-04-28T19:53:04.495Z,77.20
2019-04-28T19:55:52.037Z,77.00
2019-04-28T19:58:38.782Z,74.80
2019-04-28T20:01:28.201Z,74.40
2019-04-28T20:04:12.922Z,74.40
2019-04-28T20:06:57.623Z,75.40
2019-04-28T20:09:42.591Z,76.70
2019-04-28T20:12:27.385Z,77.90
2019-04-28T20:15:12.367Z,77.60
2019-04-28T20:17:58.891Z,77.70
2019-04-28T20:20:44.180Z,79.30
2019-04-28T20:23:29.453Z,79.00
2019-04-28T20:26:14.644Z,79.60
2019-04-28T20:28:59.899Z,80.40
2019-04-28T20:31:44.810Z,79.60
2019-04-28T20:34:29.739Z,79.60
2019-04-28T20:37:28.688Z,79.50
2019-04-28T20:40:15.790Z,79.70
2019-04-28T20:43:05.434Z,80.50
2019-04-28T20:45:50.847Z,81.10
2019-04-28T20:48:35.890Z,81.20
2019-04-28T20:51:20.794Z,81.10
2019-04-28T20:54:05.405Z,80.90
2019-04-28T20:56:50.212Z,79.70
2019-04-28T20:59:35.562Z,79.20
2019-04-28T21:02:20.481Z,80.10
2019-04-28T21:05:06.117Z,80.10
2019-04-28T21:07:51.237Z,80.50
2019-04-28T21:10:38.440Z,81.00
2019-04-28T21:13:23.817Z,81.10
2019-04-28T21:16:08.549Z,81.30
2019-04-28T21:18:53.615Z,81.00
2019-04-28T21:21:38.514Z,82.20
2019-04-28T21:24:23.326Z,81.90
2019-04-28T21:27:08.076Z,81.00
2019-04-28T21:29:52.880Z,80.90
2019-04-28T21:32:37.622Z,81.80
2019-04-28T21:35:22.371Z,80.30
2019-04-28T21:38:07.150Z,80.20
2019-04-28T21:40:51.962Z,81.30
2019-04-28T21:43:41.488Z,81.60
2019-04-28T21:46:45.197Z,81.70
2019-04-28T21:49:31.811Z,81.80
2019-04-28T21:52:16.885Z,81.30
2019-04-28T21:55:02.156Z,81.70
2019-04-28T21:57:47.293Z,82.20
2019-04-28T22:00:49.958Z,82.10
2019-04-28T22:03:40.828Z,82.70
2019-04-28T22:06:25.667Z,83.10
2019-04-28T22:09:11.638Z,82.10
2019-04-28T22:11:58.368Z,82.20
2019-04-28T22:14:43.157Z,82.40
2019-04-28T22:17:29.149Z,82.70
2019-04-28T22:20:13.858Z,83.10
2019-04-28T22:23:00.714Z,82.50
2019-04-28T22:25:45.526Z,83.10
2019-04-28T22:28:30.302Z,83.40
2019-04-28T22:31:15.104Z,83.10
2019-04-28T22:33:59.819Z,83.90
2019-04-28T22:36:46.016Z,84.00
2019-04-28T22:39:31.157Z,85.20
2019-04-28T22:42:15.984Z,85.10
2019-04-28T22:45:00.785Z,85.40
2019-04-28T22:47:45.660Z,85.20
2019-04-28T22:50:39.560Z,85.70
2019-04-28T22:53:26.821Z,85.50
2019-04-28T22:56:16.391Z,84.80
2019-04-28T22:59:13.176Z,84.50
2019-04-28T23:02:01.545Z,84.80
2019-04-28T23:05:00.057Z,84.70
2019-04-28T23:07:45.415Z,83.90
2019-04-28T23:10:30.322Z,85.20
2019-04-28T23:13:15.146Z,85.30
2019-04-28T23:16:00.025Z,85.10
2019-04-28T23:18:44.790Z,85.10
2019-04-28T23:21:32.022Z,85.70
2019-04-28T23:24:16.876Z,85.20
2019-04-28T23:27:01.918Z,85.30
2019-04-28T23:29:46.900Z,84.90
2019-04-28T23:32:33.670Z,85.20
2019-04-28T23:35:18.485Z,85.10
2019-04-28T23:38:03.431Z,85.50
2019-04-28T23:40:52.940Z,85.20
2019-04-28T23:43:37.532Z,85.00
2019-04-28T23:46:24.200Z,85.30
2019-04-28T23:49:09.350Z,85.80
2019-04-28T23:51:56.154Z,84.80
2019-04-28T23:54:45.822Z,85.70
2019-04-28T23:57:30.568Z,85.80
